createdAt,value
2022-07-31T00:00:22.010Z,99.90
2022-07-31T00:02:49.163Z,99.90
2022-07-31T00:05:16.273Z,99.90
2022-07-31T00:07:43.502Z,99.90
2022-07-31T00:10:11.098Z,99.90
2022-07-31T00:12:38.210Z,99.90
2022-07-31T00:15:08.075Z,99.90
2022-07-31T00:17:35.151Z,99.90
2022-07-31T00:20:02.409Z,99.90
2022-07-31T00:22:30.161Z,99.90
2022-07-31T00:24:57.635Z,99.90
2022-07-31T00:27:24.917Z,99.90
2022-07-31T00:29:52.152Z,99.90
2022-07-31T00:32:19.255Z,99.90
2022-07-31T00:34:46.401Z,99.90
2022-07-31T00:37:13.440Z,99.90
2022-07-31T00:39:40.582Z,99.90
2022-07-31T00:42:21.242Z,99.90
2022-07-31T00:44:49.149Z,99.90
2022-07-31T00:47:17.256Z,99.90
2022-07-31T00:49:45.894Z,99.90
2022-07-31T00:52:13.582Z,99.90
2022-07-31T00:54:40.893Z,99.90
2022-07-31T00:57:08.115Z,99.90
2022-07-31T00:59:35.351Z,99.90
2022-07-31T01:02:02.632Z,99.90
2022-07-31T01:04:31.179Z,99.90
2022-07-31T01:07:01.225Z,99.90
2022-07-31T01:09:29.296Z,99.90
2022-07-31T01:12:21.016Z,99.90
2022-07-31T01:15:01.505Z,99.90
2022-07-31T01:17:31.204Z,99.90
2022-07-31T01:19:58.960Z,99.90
2022-07-31T01:23:02.802Z,99.90
2022-07-31T01:26:06.865Z,99.90
2022-07-31T01:28:59.044Z,99.90
2022-07-31T01:31:35.201Z,99.90
2022-07-31T01:34:54.711Z,99.90
2022-07-31T01:37:37.071Z,99.90
2022-07-31T01:40:15.584Z,99.90
2022-07-31T01:42:53.831Z,99.90
2022-07-31T01:45:22.485Z,99.90
2022-07-31T01:47:51.983Z,99.90
2022-07-31T01:50:42.329Z,99.90
2022-07-31T01:53:09.098Z,99.90
2022-07-31T01:56:01.973Z,99.90
2022-07-31T01:58:29.472Z,99.90
2022-07-31T02:00:58.458Z,99.90
2022-07-31T02:03:43.676Z,99.90
2022-07-31T02:06:19.023Z,99.90
2022-07-31T02:08:49.191Z,99.90
2022-07-31T02:11:19.031Z,99.90
2022-07-31T02:13:48.408Z,99.90
2022-07-31T02:16:18.765Z,99.90
2022-07-31T02:18:49.799Z,99.90
2022-07-31T02:21:17.801Z,99.90
2022-07-31T02:23:45.001Z,99.90
2022-07-31T02:26:14.515Z,99.90
2022-07-31T02:28:43.878Z,99.90
2022-07-31T02:31:13.424Z,99.90
2022-07-31T02:33:45.753Z,99.90
2022-07-31T02:36:14.431Z,99.90
2022-07-31T02:38:44.291Z,99.90
2022-07-31T02:41:12.929Z,99.90
2022-07-31T02:43:40.901Z,99.90
2022-07-31T02:46:12.447Z,99.90
2022-07-31T02:48:40.224Z,99.90
2022-07-31T02:51:08.506Z,99.90
2022-07-31T02:53:37.610Z,99.90
2022-07-31T02:56:06.524Z,99.90
2022-07-31T02:58:33.880Z,99.90
2022-07-31T03:01:06.289Z,99.90
2022-07-31T03:03:33.720Z,99.90
2022-07-31T03:06:01.174Z,99.90
2022-07-31T03:08:28.942Z,99.90
2022-07-31T03:10:58.361Z,99.90
2022-07-31T03:13:29.236Z,99.90
2022-07-31T03:15:57.248Z,99.90
2022-07-31T03:18:26.652Z,99.90
2022-07-31T03:20:56.281Z,99.90
2022-07-31T03:23:27.491Z,99.90
2022-07-31T03:25:55.094Z,99.90
2022-07-31T03:28:22.373Z,99.90
2022-07-31T03:30:56.235Z,99.90
2022-07-31T03:33:23.993Z,99.90
2022-07-31T03:35:51.527Z,99.90
2022-07-31T03:38:38.517Z,99.90
2022-07-31T03:41:06.069Z,99.90
2022-07-31T03:43:44.073Z,99.90
2022-07-31T03:46:20.692Z,99.90
2022-07-31T03:48:51.877Z,99.90
2022-07-31T03:51:19.670Z,99.90
2022-07-31T03:53:48.090Z,99.90
2022-07-31T03:56:17.607Z,99.90
2022-07-31T03:58:49.748Z,99.90
2022-07-31T04:01:21.170Z,99.90
2022-07-31T04:03:49.105Z,99.90
2022-07-31T04:06:16.154Z,99.90
2022-07-31T04:08:43.395Z,99.90
2022-07-31T04:11:10.543Z,99.90
2022-07-31T04:13:37.899Z,99.90
2022-07-31T04:16:05.148Z,99.90
2022-07-31T04:18:32.231Z,99.90
2022-07-31T04:20:59.892Z,99.90
2022-07-31T04:23:32.328Z,99.90
2022-07-31T04:26:00.353Z,99.90
2022-07-31T04:28:27.518Z,99.90
2022-07-31T04:30:54.657Z,99.90
2022-07-31T04:33:21.899Z,99.90
2022-07-31T04:35:49.019Z,99.90
2022-07-31T04:38:17.077Z,99.90
2022-07-31T04:40:44.292Z,99.90
2022-07-31T04:43:12.813Z,99.90
2022-07-31T04:45:40.094Z,99.90
2022-07-31T04:48:07.272Z,99.90
2022-07-31T04:50:34.412Z,99.90
2022-07-31T04:53:01.468Z,99.90
2022-07-31T04:55:29.396Z,99.90
2022-07-31T04:57:56.519Z,99.90
2022-07-31T05:00:23.781Z,99.90
2022-07-31T05:02:51.446Z,99.90
2022-07-31T05:05:18.670Z,99.90
2022-07-31T05:07:46.793Z,99.90
2022-07-31T05:10:33.865Z,99.90
2022-07-31T05:13:01.071Z,99.90
2022-07-31T05:15:28.449Z,99.90
2022-07-31T05:17:55.563Z,99.90
2022-07-31T05:20:23.642Z,99.90
2022-07-31T05:22:52.051Z,99.90
2022-07-31T05:25:19.251Z,99.90
2022-07-31T05:27:46.316Z,99.90
2022-07-31T05:30:17.246Z,99.90
2022-07-31T05:32:58.557Z,99.90
2022-07-31T05:35:25.880Z,99.90
2022-07-31T05:37:52.932Z,99.90
2022-07-31T05:40:20.124Z,99.90
2022-07-31T05:42:47.212Z,99.90
2022-07-31T05:45:14.366Z,99.90
2022-07-31T05:47:41.728Z,99.90
2022-07-31T05:50:09.984Z,99.90
2022-07-31T05:52:37.183Z,99.90
2022-07-31T05:55:04.935Z,99.90
2022-07-31T05:57:33.131Z,99.90
2022-07-31T06:00:02.010Z,99.90
2022-07-31T06:02:31.496Z,99.90
2022-07-31T06:04:58.649Z,99.90
2022-07-31T06:07:25.742Z,99.90
2022-07-31T06:09:53.138Z,99.90
2022-07-31T06:12:20.296Z,99.90
2022-07-31T06:14:47.399Z,99.90
2022-07-31T06:17:14.610Z,99.90
2022-07-31T06:19:41.721Z,99.90
2022-07-31T06:22:09.193Z,99.90
2022-07-31T06:24:38.295Z,99.90
2022-07-31T06:27:08.702Z,99.90
2022-07-31T06:29:56.687Z,99.90
2022-07-31T06:32:24.606Z,99.90
2022-07-31T06:34:51.765Z,99.90
2022-07-31T06:37:19.821Z,99.90
2022-07-31T06:39:56.004Z,99.90
2022-07-31T06:42:26.100Z,99.90
2022-07-31T06:44:54.059Z,99.90
2022-07-31T06:47:25.121Z,99.90
2022-07-31T06:49:53.609Z,99.90
2022-07-31T06:52:20.900Z,99.90
2022-07-31T06:54:48.069Z,99.90
2022-07-31T06:57:15.631Z,99.90
2022-07-31T06:59:42.704Z,99.90
2022-07-31T07:02:10.092Z,99.90
2022-07-31T07:04:57.397Z,99.90
2022-07-31T07:07:24.272Z,99.90
2022-07-31T07:09:59.025Z,99.90
2022-07-31T07:12:26.877Z,99.90
2022-07-31T07:14:55.012Z,99.90
2022-07-31T07:17:25.904Z,99.90
2022-07-31T07:19:55.913Z,99.90
2022-07-31T07:22:31.131Z,99.90
2022-07-31T07:25:01.120Z,99.90
2022-07-31T07:27:28.542Z,99.90
2022-07-31T07:29:56.432Z,99.90
2022-07-31T07:32:23.600Z,99.90
2022-07-31T07:34:59.975Z,99.90
2022-07-31T07:37:28.731Z,99.90
2022-07-31T07:39:56.880Z,99.90
2022-07-31T07:42:23.977Z,99.90
2022-07-31T07:44:51.046Z,99.90
2022-07-31T07:47:18.134Z,99.90
2022-07-31T07:49:45.258Z,99.90
2022-07-31T07:52:12.702Z,99.90
2022-07-31T07:54:42.876Z,99.90
2022-07-31T07:57:16.969Z,99.90
2022-07-31T07:59:44.404Z,99.90
2022-07-31T08:02:12.403Z,99.90
2022-07-31T08:04:39.737Z,99.90
2022-07-31T08:07:07.385Z,99.90
2022-07-31T08:09:35.986Z,99.90
2022-07-31T08:12:04.785Z,99.90
2022-07-31T08:14:32.029Z,99.90
2022-07-31T08:16:59.122Z,99.90
2022-07-31T08:19:26.243Z,99.90
2022-07-31T08:21:53.293Z,99.90
2022-07-31T08:24:20.354Z,99.90
2022-07-31T08:27:08.755Z,99.90
2022-07-31T08:29:37.909Z,99.90
2022-07-31T08:32:05.862Z,99.90
2022-07-31T08:34:33.332Z,99.90
2022-07-31T08:37:50.392Z,99.90
2022-07-31T08:39:50.377Z,99.90
2022-07-31T08:42:18.761Z,99.90
2022-07-31T08:44:46.912Z,99.90
2022-07-31T08:47:16.338Z,99.90
2022-07-31T08:49:49.510Z,99.90
2022-07-31T08:52:24.994Z,99.90
2022-07-31T08:54:53.778Z,99.90
2022-07-31T08:57:21.377Z,99.90
2022-07-31T08:59:52.450Z,99.20
2022-07-31T09:02:19.595Z,99.90
2022-07-31T09:04:51.958Z,99.90
2022-07-31T09:07:19.865Z,99.10
2022-07-31T09:09:52.249Z,99.90
2022-07-31T09:12:34.641Z,97.80
2022-07-31T09:15:02.391Z,99.20
2022-07-31T09:17:36.723Z,97.70
2022-07-31T09:20:05.791Z,98.30
2022-07-31T09:22:33.930Z,97.40
2022-07-31T09:25:18.868Z,95.50
2022-07-31T09:27:48.553Z,95.90
2022-07-31T09:30:16.824Z,94.80
2022-07-31T09:32:47.298Z,95.20
2022-07-31T09:35:15.539Z,94.30
2022-07-31T09:37:47.686Z,94.00
2022-07-31T09:40:15.324Z,94.00
2022-07-31T09:42:55.449Z,94.70
2022-07-31T09:45:24.396Z,95.40
2022-07-31T09:48:15.258Z,94.70
2022-07-31T09:50:55.365Z,94.50
2022-07-31T09:53:24.125Z,94.60
2022-07-31T09:55:57.574Z,93.50
2022-07-31T09:58:24.865Z,93.30
2022-07-31T10:00:53.996Z,92.40
2022-07-31T10:03:22.454Z,92.00
2022-07-31T10:05:50.277Z,92.30
2022-07-31T10:08:17.995Z,92.70
2022-07-31T10:10:46.014Z,91.90
2022-07-31T10:13:19.361Z,90.00
2022-07-31T10:15:50.111Z,89.00
2022-07-31T10:18:35.682Z,90.20
2022-07-31T10:21:06.936Z,91.20
2022-07-31T10:23:39.147Z,90.70
2022-07-31T10:26:06.632Z,90.50
2022-07-31T10:28:38.100Z,88.20
2022-07-31T10:31:06.172Z,85.60
2022-07-31T10:33:44.077Z,87.70
2022-07-31T10:36:21.617Z,84.90
2022-07-31T10:39:06.305Z,83.70
2022-07-31T10:42:06.380Z,83.50
2022-07-31T10:44:46.005Z,84.40
2022-07-31T10:47:17.750Z,81.00
2022-07-31T10:49:49.764Z,82.90
2022-07-31T10:52:35.101Z,79.40
2022-07-31T10:55:02.411Z,77.30
2022-07-31T10:57:34.715Z,79.40
2022-07-31T11:00:29.510Z,77.60
2022-07-31T11:02:57.210Z,77.50
2022-07-31T11:05:26.048Z,76.70
2022-07-31T11:08:06.444Z,77.50
2022-07-31T11:10:34.504Z,78.80
2022-07-31T11:13:11.138Z,74.60
2022-07-31T11:15:38.595Z,74.60
2022-07-31T11:18:24.930Z,76.60
2022-07-31T11:21:13.714Z,74.90
2022-07-31T11:23:57.611Z,75.20
2022-07-31T11:26:32.804Z,75.00
2022-07-31T11:30:01.612Z,76.40
2022-07-31T11:32:01.583Z,77.00
2022-07-31T11:34:28.650Z,75.60
2022-07-31T11:36:55.921Z,76.50
2022-07-31T11:39:34.166Z,76.50
2022-07-31T11:42:05.125Z,75.20
2022-07-31T11:44:35.795Z,75.90
2022-07-31T11:47:03.258Z,74.80
2022-07-31T11:49:59.910Z,74.10
2022-07-31T11:52:30.978Z,75.70
2022-07-31T11:55:09.373Z,77.40
2022-07-31T11:57:50.957Z,77.20
2022-07-31T12:00:26.982Z,75.90
2022-07-31T12:02:57.528Z,75.20
2022-07-31T12:05:37.792Z,77.10
2022-07-31T12:08:07.993Z,76.70
2022-07-31T12:10:35.665Z,73.10
2022-07-31T12:13:03.183Z,71.20
2022-07-31T12:15:30.514Z,74.60
2022-07-31T12:18:04.236Z,73.00
2022-07-31T12:20:36.961Z,72.60
2022-07-31T12:23:06.428Z,73.20
2022-07-31T12:25:42.165Z,72.50
2022-07-31T12:28:10.234Z,71.40
2022-07-31T12:30:37.596Z,70.50
2022-07-31T12:33:07.190Z,76.40
2022-07-31T12:35:56.503Z,75.60
2022-07-31T12:38:47.623Z,73.90
2022-07-31T12:41:15.250Z,72.20
2022-07-31T12:43:51.836Z,71.90
2022-07-31T12:46:40.363Z,70.50
2022-07-31T12:49:08.601Z,70.10
2022-07-31T12:51:44.917Z,70.70
2022-07-31T12:54:18.096Z,70.50
2022-07-31T12:56:46.705Z,72.00
2022-07-31T12:59:14.535Z,70.10
2022-07-31T13:01:42.021Z,70.40
2022-07-31T13:04:19.038Z,67.70
2022-07-31T13:06:51.666Z,68.60
2022-07-31T13:09:19.625Z,70.40
2022-07-31T13:11:48.476Z,72.20
2022-07-31T13:14:17.133Z,69.10
2022-07-31T13:16:45.721Z,69.00
2022-07-31T13:19:13.803Z,69.10
2022-07-31T13:21:49.571Z,71.50
2022-07-31T13:24:19.775Z,68.90
2022-07-31T13:26:48.744Z,68.90
2022-07-31T13:29:17.061Z,69.50
2022-07-31T13:31:44.642Z,70.20
2022-07-31T13:34:12.861Z,72.30
2022-07-31T13:36:40.173Z,70.30
2022-07-31T13:39:11.017Z,72.20
2022-07-31T13:41:39.480Z,69.70
2022-07-31T13:44:08.282Z,70.90
2022-07-31T13:46:35.954Z,67.80
2022-07-31T13:49:08.225Z,70.70
2022-07-31T13:51:36.801Z,70.90
2022-07-31T13:54:04.684Z,66.70
2022-07-31T13:56:39.791Z,71.10
2022-07-31T13:59:12.553Z,69.70
2022-07-31T14:02:03.957Z,68.20
2022-07-31T14:04:31.367Z,69.70
2022-07-31T14:07:01.322Z,66.80
2022-07-31T14:09:30.828Z,66.90
2022-07-31T14:11:57.912Z,67.20
2022-07-31T14:14:25.246Z,68.00
2022-07-31T14:16:52.365Z,70.70
2022-07-31T14:19:20.496Z,67.00
2022-07-31T14:21:56.303Z,65.40
2022-07-31T14:24:36.819Z,63.30
2022-07-31T14:27:04.176Z,61.40
2022-07-31T14:29:31.245Z,63.80
2022-07-31T14:32:03.450Z,64.30
2022-07-31T14:34:35.676Z,62.10
2022-07-31T14:37:04.870Z,61.00
2022-07-31T14:39:32.238Z,59.90
2022-07-31T14:41:59.318Z,60.60
2022-07-31T14:44:28.820Z,58.30
2022-07-31T14:46:56.353Z,59.60
2022-07-31T14:49:23.697Z,59.90
2022-07-31T14:51:50.797Z,61.50
2022-07-31T14:54:17.888Z,62.50
2022-07-31T14:57:00.822Z,61.00
2022-07-31T14:59:29.653Z,61.50
2022-07-31T15:01:57.828Z,63.30
2022-07-31T15:04:25.382Z,64.20
2022-07-31T15:07:03.118Z,66.30
2022-07-31T15:09:39.766Z,64.50
2022-07-31T15:12:07.585Z,63.20
2022-07-31T15:14:35.453Z,63.20
2022-07-31T15:17:03.115Z,63.50
2022-07-31T15:19:30.522Z,64.90
2022-07-31T15:22:15.963Z,64.00
2022-07-31T15:24:49.626Z,64.90
2022-07-31T15:27:19.029Z,64.60
2022-07-31T15:30:03.931Z,64.70
2022-07-31T15:32:38.423Z,65.40
2022-07-31T15:35:09.270Z,66.80
2022-07-31T15:37:38.467Z,66.70
2022-07-31T15:40:09.176Z,67.10
2022-07-31T15:42:40.503Z,63.60
2022-07-31T15:45:14.205Z,64.00
2022-07-31T15:47:42.649Z,64.50
2022-07-31T15:50:12.241Z,63.60
2022-07-31T15:52:39.924Z,64.40
2022-07-31T15:55:09.107Z,65.10
2022-07-31T15:57:36.504Z,63.70
2022-07-31T16:00:06.200Z,63.20
2022-07-31T16:02:33.426Z,64.70
2022-07-31T16:05:17.248Z,66.90
2022-07-31T16:08:29.337Z,64.20
2022-07-31T16:10:35.377Z,65.70
2022-07-31T16:13:02.491Z,65.40
2022-07-31T16:15:29.657Z,67.70
2022-07-31T16:17:56.736Z,64.50
2022-07-31T16:20:26.222Z,66.10
2022-07-31T16:23:01.354Z,67.50
2022-07-31T16:25:34.474Z,65.40
2022-07-31T16:28:04.427Z,65.20
2022-07-31T16:30:32.033Z,64.20
2022-07-31T16:32:59.229Z,64.40
2022-07-31T16:35:26.905Z,66.20
2022-07-31T16:37:54.994Z,65.50
2022-07-31T16:40:28.901Z,64.10
2022-07-31T16:43:48.585Z,63.50
2022-07-31T16:45:52.485Z,63.20
2022-07-31T16:48:19.928Z,63.20
2022-07-31T16:50:53.677Z,65.30
2022-07-31T16:54:11.488Z,62.60
2022-07-31T16:56:14.908Z,64.90
2022-07-31T16:58:43.674Z,66.40
2022-07-31T17:01:58.487Z,66.30
2022-07-31T17:04:03.652Z,67.80
2022-07-31T17:06:36.093Z,69.40
2022-07-31T17:09:17.283Z,69.90
2022-07-31T17:11:48.112Z,70.20
2022-07-31T17:14:17.372Z,70.60
2022-07-31T17:16:48.047Z,72.30
2022-07-31T17:19:41.682Z,73.10
2022-07-31T17:22:08.109Z,71.90
2022-07-31T17:24:38.213Z,72.10
2022-07-31T17:27:08.481Z,71.50
2022-07-31T17:29:37.842Z,72.00
2022-07-31T17:32:05.772Z,72.80
2022-07-31T17:34:33.408Z,72.90
2022-07-31T17:37:00.555Z,74.20
2022-07-31T17:39:30.810Z,73.20
2022-07-31T17:41:59.385Z,73.30
2022-07-31T17:44:26.682Z,73.90
2022-07-31T17:46:54.949Z,73.30
2022-07-31T17:49:22.128Z,73.30
2022-07-31T17:51:59.118Z,74.10
2022-07-31T17:54:30.318Z,73.10
2022-07-31T17:56:58.063Z,73.70
2022-07-31T17:59:26.021Z,74.10
2022-07-31T18:01:59.543Z,75.00
2022-07-31T18:04:32.593Z,75.60
2022-07-31T18:07:04.308Z,75.10
2022-07-31T18:09:32.429Z,75.10
2022-07-31T18:11:59.887Z,76.50
2022-07-31T18:14:27.289Z,77.50
2022-07-31T18:16:55.145Z,77.90
2022-07-31T18:19:22.751Z,78.10
2022-07-31T18:21:51.254Z,77.40
2022-07-31T18:24:19.688Z,78.60
2022-07-31T18:26:47.318Z,79.10
2022-07-31T18:29:16.786Z,79.40
2022-07-31T18:31:44.803Z,79.70
2022-07-31T18:34:12.408Z,79.90
2022-07-31T18:36:40.419Z,80.70
2022-07-31T18:39:07.772Z,80.90
2022-07-31T18:41:34.928Z,81.50
2022-07-31T18:44:02.185Z,81.40
2022-07-31T18:46:32.043Z,80.20
2022-07-31T18:49:00.147Z,79.60
2022-07-31T18:51:29.777Z,79.70
2022-07-31T18:53:57.891Z,77.30
2022-07-31T18:56:26.395Z,77.30
2022-07-31T18:58:54.417Z,77.50
2022-07-31T19:01:23.626Z,76.10
2022-07-31T19:03:52.194Z,76.90
2022-07-31T19:06:19.893Z,78.00
2022-07-31T19:08:49.448Z,78.30
2022-07-31T19:11:16.749Z,78.60
2022-07-31T19:13:43.987Z,77.70
2022-07-31T19:16:11.277Z,77.80
2022-07-31T19:18:40.301Z,78.70
2022-07-31T19:21:22.805Z,79.10
2022-07-31T19:23:57.686Z,78.60
2022-07-31T19:26:24.926Z,78.50
2022-07-31T19:28:52.046Z,79.10
2022-07-31T19:31:19.222Z,79.40
2022-07-31T19:33:46.475Z,79.50
2022-07-31T19:36:15.361Z,79.10
2022-07-31T19:38:44.476Z,79.80
2022-07-31T19:41:12.549Z,79.80
2022-07-31T19:43:39.766Z,80.20
2022-07-31T19:46:11.409Z,81.40
2022-07-31T19:48:45.143Z,81.90
2022-07-31T19:51:14.286Z,82.00
2022-07-31T19:53:42.115Z,82.50
2022-07-31T19:56:11.322Z,82.60
2022-07-31T19:58:42.056Z,83.20
2022-07-31T20:01:10.739Z,84.00
2022-07-31T20:03:38.227Z,85.00
2022-07-31T20:06:05.911Z,84.10
2022-07-31T20:08:34.851Z,85.00
2022-07-31T20:11:04.472Z,86.20
2022-07-31T20:13:33.854Z,85.20
2022-07-31T20:16:01.618Z,84.50
2022-07-31T20:18:29.574Z,84.80
2022-07-31T20:21:03.771Z,85.10
2022-07-31T20:23:34.322Z,84.80
2022-07-31T20:26:02.011Z,85.40
2022-07-31T20:28:29.337Z,85.90
2022-07-31T20:30:56.848Z,86.40
2022-07-31T20:33:24.146Z,86.50
2022-07-31T20:35:51.478Z,86.00
2022-07-31T20:38:24.113Z,87.60
2022-07-31T20:40:55.357Z,88.00
2022-07-31T20:43:28.934Z,87.50
2022-07-31T20:45:58.292Z,87.90
2022-07-31T20:48:32.316Z,88.30
2022-07-31T20:51:01.671Z,88.70
2022-07-31T20:53:29.804Z,89.10
2022-07-31T20:55:57.596Z,89.10
2022-07-31T20:58:26.057Z,89.30
2022-07-31T21:00:53.744Z,89.90
2022-07-31T21:03:21.436Z,90.40
2022-07-31T21:05:49.425Z,90.10
2022-07-31T21:08:17.223Z,90.40
2022-07-31T21:10:45.030Z,90.90
2022-07-31T21:13:12.999Z,91.30
2022-07-31T21:15:44.619Z,91.60
2022-07-31T21:18:17.416Z,91.60
2022-07-31T21:20:50.726Z,91.50
2022-07-31T21:23:25.931Z,91.60
2022-07-31T21:25:56.095Z,91.50
2022-07-31T21:28:25.926Z,91.20
2022-07-31T21:30:56.188Z,91.20
2022-07-31T21:33:27.811Z,91.40
2022-07-31T21:35:55.957Z,91.50
2022-07-31T21:38:24.196Z,91.70
2022-07-31T21:40:51.977Z,92.00
2022-07-31T21:43:22.617Z,92.00
2022-07-31T21:45:57.182Z,92.10
2022-07-31T21:48:27.260Z,92.30
2022-07-31T21:50:55.335Z,92.50
2022-07-31T21:53:23.200Z,92.50
2022-07-31T21:55:50.567Z,92.50
2022-07-31T21:58:17.790Z,92.60
2022-07-31T22:00:45.267Z,92.70
2022-07-31T22:03:12.555Z,92.80
2022-07-31T22:05:58.567Z,93.20
2022-07-31T22:08:25.777Z,93.60
2022-07-31T22:10:53.256Z,94.10
2022-07-31T22:13:20.735Z,94.20
2022-07-31T22:15:51.553Z,94.40
2022-07-31T22:18:35.819Z,94.60
2022-07-31T22:21:07.143Z,95.20
2022-07-31T22:23:35.730Z,95.60
2022-07-31T22:26:03.437Z,95.70
2022-07-31T22:28:31.295Z,95.70
2022-07-31T22:30:58.748Z,96.20
2022-07-31T22:33:26.073Z,96.80
2022-07-31T22:35:58.901Z,97.30
2022-07-31T22:38:30.515Z,97.70
2022-07-31T22:40:59.820Z,98.20
2022-07-31T22:44:11.287Z,98.50
2022-07-31T22:46:15.777Z,98.50
2022-07-31T22:48:46.013Z,98.90
2022-07-31T22:51:14.780Z,99.30
2022-07-31T22:53:44.016Z,99.70
2022-07-31T22:56:11.272Z,99.90
2022-07-31T22:58:57.281Z,99.90
2022-07-31T23:01:24.450Z,99.90
2022-07-31T23:03:53.672Z,99.90
2022-07-31T23:06:30.843Z,99.90
2022-07-31T23:09:00.333Z,99.90
2022-07-31T23:11:27.845Z,99.90
2022-07-31T23:13:54.933Z,99.90
2022-07-31T23:16:22.340Z,99.90
2022-07-31T23:18:50.647Z,99.90
2022-07-31T23:21:19.430Z,99.90
2022-07-31T23:23:48.775Z,99.90
2022-07-31T23:26:21.741Z,99.90
2022-07-31T23:28:48.845Z,99.90
2022-07-31T23:31:16.935Z,99.90
2022-07-31T23:33:46.647Z,99.90
2022-07-31T23:36:15.216Z,99.90
2022-07-31T23:38:43.841Z,99.90
2022-07-31T23:41:11.829Z,99.90
2022-07-31T23:43:39.063Z,99.90
2022-07-31T23:46:06.351Z,99.90
2022-07-31T23:48:35.962Z,99.90
2022-07-31T23:51:03.354Z,99.90
2022-07-31T23:53:30.441Z,99.90
2022-07-31T23:55:57.504Z,99.90
2022-07-31T23:58:24.703Z,99.90
